Time;durP1;ratioP1;P1;durP2;ratioP2;P2;SDS_P1;SDS_P2;PMS_P1;PMS_P2;Temp;Humidity;BMP_temperature;BMP_pressure;BME280_temperature;BME280_humidity;BME280_pressure;Samples;Min_cycle;Max_cycle;Signal;HPM_P1;HPM_P2
2022/06/23 00:00:57;;;;;;;16.60;7.07;;;;;;;;;;10486167;28;20462;-81
2022/06/23 00:06:03;;;;;;;20.05;8.02;;;;;;;;;;10465013;28;20037;-81
2022/06/23 00:11:18;;;;;;;21.35;8.73;;;;;;;;;;10484577;28;20095;-82
2022/06/23 00:16:24;;;;;;;17.70;8.27;;;;;;;;;;10479768;28;20044;-82
2022/06/23 00:21:29;;;;;;;17.10;7.80;;;;;;;;;;10472480;28;20040;-83
2022/06/23 00:26:34;;;;;;;16.90;6.47;;;;;;;;;;10482721;28;20040;-84
2022/06/23 00:31:38;;;;;;;15.65;6.53;;;;;;;;;;10469542;28;20045;-83
2022/06/23 00:36:48;;;;;;;16.75;6.22;;;;;;;;;;10485373;28;20063;-83
2022/06/23 00:41:51;;;;;;;13.75;6.20;;;;;;;;;;10493296;28;20041;-83
2022/06/23 00:46:57;;;;;;;17.85;5.72;;;;;;;;;;10484738;28;20037;-84
2022/06/23 00:52:03;;;;;;;14.95;5.97;;;;;;;;;;10463194;28;20094;-81
2022/06/23 00:57:10;;;;;;;14.20;6.57;;;;;;;;;;10495837;28;20040;-80
2022/06/23 01:02:14;;;;;;;19.92;6.88;;;;;;;;;;10489689;28;20048;-80
2022/06/23 01:07:26;;;;;;;23.25;7.43;;;;;;;;;;10472528;28;20036;-82
2022/06/23 01:12:33;;;;;;;15.27;6.97;;;;;;;;;;10478775;28;20040;-82
2022/06/23 01:17:41;;;;;;;23.52;7.28;;;;;;;;;;10466064;28;20052;-81
2022/06/23 01:23:02;;;;;;;22.25;7.07;;;;;;;;;;10488239;28;20032;-81
2022/06/23 01:28:10;;;;;;;17.50;7.00;;;;;;;;;;10484549;28;20079;-82
2022/06/23 01:33:25;;;;;;;19.17;6.57;;;;;;;;;;10467020;28;20135;-82
2022/06/23 01:38:34;;;;;;;19.60;6.32;;;;;;;;;;10478811;28;20036;-81
2022/06/23 01:43:41;;;;;;;17.35;5.82;;;;;;;;;;10457240;28;20063;-83
2022/06/23 01:48:52;;;;;;;15.38;5.13;;;;;;;;;;10493733;28;20456;-83
2022/06/23 01:54:07;;;;;;;13.18;5.20;;;;;;;;;;10459373;28;20051;-82
2022/06/23 01:59:28;;;;;;;14.07;5.00;;;;;;;;;;10454257;28;20039;-82
2022/06/23 02:04:33;;;;;;;12.20;5.45;;;;;;;;;;10460384;28;20032;-82
2022/06/23 02:15:36;;;;;;;13.18;5.60;;;;;;;;;;10468577;28;20016;-83
2022/06/23 02:20:42;;;;;;;14.70;5.85;;;;;;;;;;10474544;28;20047;-82
2022/06/23 02:25:49;;;;;;;14.48;6.13;;;;;;;;;;10457571;28;20467;-82
2022/06/23 02:30:55;;;;;;;18.60;6.50;;;;;;;;;;10459351;28;20064;-82
2022/06/23 02:36:00;;;;;;;12.57;5.57;;;;;;;;;;10464343;28;20082;-83
2022/06/23 02:41:07;;;;;;;12.05;5.57;;;;;;;;;;10475198;28;20063;-82
2022/06/23 02:46:27;;;;;;;15.93;4.90;;;;;;;;;;10470580;28;20026;-82
2022/06/23 02:51:44;;;;;;;9.75;4.35;;;;;;;;;;10459951;28;20106;-81
2022/06/23 02:57:02;;;;;;;14.20;5.85;;;;;;;;;;10480857;28;20040;-81
2022/06/23 03:02:09;;;;;;;12.55;4.80;;;;;;;;;;10479087;28;20105;-80
2022/06/23 03:07:14;;;;;;;11.05;4.90;;;;;;;;;;10479965;28;20386;-81
2022/06/23 03:12:19;;;;;;;13.35;5.35;;;;;;;;;;10474379;28;20049;-81
2022/06/23 03:17:36;;;;;;;15.48;4.70;;;;;;;;;;10491366;28;20032;-81
2022/06/23 03:22:41;;;;;;;12.40;4.53;;;;;;;;;;10476115;28;20067;-81
2022/06/23 03:27:48;;;;;;;14.93;5.18;;;;;;;;;;10467990;28;20055;-81
2022/06/23 03:32:54;;;;;;;13.55;4.90;;;;;;;;;;10469576;28;20570;-81
2022/06/23 03:38:01;;;;;;;16.45;5.28;;;;;;;;;;10490602;28;20558;-81
2022/06/23 03:43:08;;;;;;;14.40;4.20;;;;;;;;;;10485466;28;20083;-81
2022/06/23 03:48:16;;;;;;;9.65;3.45;;;;;;;;;;10467484;28;20119;-81
2022/06/23 03:53:22;;;;;;;13.95;4.60;;;;;;;;;;10490665;28;20432;-81
2022/06/23 03:58:30;;;;;;;14.23;3.55;;;;;;;;;;10486077;28;20095;-82
2022/06/23 04:03:37;;;;;;;14.63;4.00;;;;;;;;;;10463713;28;20044;-81
2022/06/23 04:08:49;;;;;;;12.32;3.78;;;;;;;;;;10485404;28;20497;-82
2022/06/23 04:13:54;;;;;;;14.95;4.35;;;;;;;;;;10483330;28;20092;-82
2022/06/23 04:19:03;;;;;;;15.35;4.35;;;;;;;;;;10464401;28;20052;-82
2022/06/23 04:24:07;;;;;;;11.80;3.85;;;;;;;;;;10461155;28;20041;-83
2022/06/23 04:29:11;;;;;;;14.60;3.83;;;;;;;;;;10465677;28;20059;-82
2022/06/23 04:34:19;;;;;;;14.27;3.72;;;;;;;;;;10467395;28;20043;-83
2022/06/23 04:39:27;;;;;;;8.95;3.10;;;;;;;;;;10470899;28;20098;-83
2022/06/23 04:44:34;;;;;;;8.35;2.75;;;;;;;;;;10466800;28;20032;-81
2022/06/23 04:49:46;;;;;;;6.93;2.60;;;;;;;;;;10487905;28;21023;-82
2022/06/23 04:54:51;;;;;;;5.57;1.80;;;;;;;;;;10467895;28;20740;-79
2022/06/23 04:59:54;;;;;;;10.65;3.70;;;;;;;;;;10485180;28;20064;-81
2022/06/23 05:05:02;;;;;;;11.77;3.97;;;;;;;;;;10488279;28;20032;-80
2022/06/23 05:10:07;;;;;;;10.80;3.70;;;;;;;;;;10460535;28;20085;-82
2022/06/23 05:15:14;;;;;;;14.48;3.35;;;;;;;;;;10479958;28;20048;-82
2022/06/23 05:20:26;;;;;;;13.18;3.00;;;;;;;;;;10462782;28;20051;-82
2022/06/23 05:25:38;;;;;;;9.55;3.53;;;;;;;;;;10465599;28;20032;-82
2022/06/23 05:30:48;;;;;;;11.98;3.30;;;;;;;;;;10488248;28;20081;-82
2022/06/23 05:35:54;;;;;;;12.80;3.53;;;;;;;;;;10469971;28;20041;-82
2022/06/23 05:41:03;;;;;;;8.95;3.60;;;;;;;;;;10462845;28;20048;-80
2022/06/23 05:46:20;;;;;;;10.85;3.33;;;;;;;;;;10464265;28;20032;-81
2022/06/23 05:51:29;;;;;;;11.30;3.67;;;;;;;;;;10484223;28;20120;-82
2022/06/23 05:56:34;;;;;;;11.55;3.25;;;;;;;;;;10481911;28;20033;-82
2022/06/23 06:01:38;;;;;;;12.63;3.25;;;;;;;;;;10475873;28;20045;-81
2022/06/23 06:06:45;;;;;;;9.65;3.20;;;;;;;;;;10471791;28;20107;-81
2022/06/23 06:11:50;;;;;;;13.00;3.33;;;;;;;;;;10450770;28;20044;-82
2022/06/23 06:16:53;;;;;;;9.43;2.92;;;;;;;;;;10479767;28;20087;-83
2022/06/23 06:21:59;;;;;;;7.82;2.88;;;;;;;;;;10460395;28;20043;-83
2022/06/23 06:27:03;;;;;;;8.98;2.90;;;;;;;;;;10473960;28;20040;-82
2022/06/23 06:32:14;;;;;;;9.63;2.47;;;;;;;;;;10475506;28;20072;-80
2022/06/23 06:37:26;;;;;;;10.38;2.75;;;;;;;;;;10480594;28;20040;-82
2022/06/23 06:42:31;;;;;;;12.00;3.13;;;;;;;;;;10459274;28;20044;-83
2022/06/23 06:47:36;;;;;;;9.73;2.95;;;;;;;;;;10472618;28;20063;-82
2022/06/23 06:52:46;;;;;;;11.85;3.25;;;;;;;;;;10466467;28;20044;-82
2022/06/23 06:57:52;;;;;;;7.28;3.00;;;;;;;;;;10487223;28;20067;-82
2022/06/23 07:02:58;;;;;;;8.23;2.75;;;;;;;;;;10485578;28;20048;-84
2022/06/23 07:08:05;;;;;;;9.32;2.92;;;;;;;;;;10470987;28;20033;-83
2022/06/23 07:13:10;;;;;;;12.25;2.85;;;;;;;;;;10460160;28;20044;-81
2022/06/23 07:18:17;;;;;;;13.25;3.13;;;;;;;;;;10496153;28;20045;-82
2022/06/23 07:23:23;;;;;;;14.40;3.67;;;;;;;;;;10473684;28;20033;-83
2022/06/23 07:28:31;;;;;;;9.38;2.58;;;;;;;;;;10488964;28;20040;-81
2022/06/23 07:33:36;;;;;;;9.52;2.90;;;;;;;;;;10460819;28;20117;-83
2022/06/23 07:38:43;;;;;;;9.23;2.85;;;;;;;;;;10473907;28;20681;-81
2022/06/23 07:43:51;;;;;;;8.32;2.90;;;;;;;;;;10469895;28;20130;-83
2022/06/23 07:48:54;;;;;;;13.82;3.03;;;;;;;;;;10460391;28;20128;-81
2022/06/23 07:53:57;;;;;;;;;;;;;;;;;;10482381;28;20052;-81
2022/06/23 07:59:03;;;;;;;6.28;3.40;;;;;;;;;;10460646;28;20388;-82
2022/06/23 08:04:11;;;;;;;12.43;3.35;;;;;;;;;;10464649;28;20037;-81
2022/06/23 08:09:17;;;;;;;12.20;3.78;;;;;;;;;;10485734;28;20046;-82
2022/06/23 08:14:23;;;;;;;7.10;3.45;;;;;;;;;;10465491;28;20098;-82
2022/06/23 08:19:32;;;;;;;10.13;3.38;;;;;;;;;;10479853;28;20099;-83
2022/06/23 08:24:36;;;;;;;17.95;3.72;;;;;;;;;;10472575;28;20781;-81
2022/06/23 08:29:53;;;;;;;8.60;2.80;;;;;;;;;;10462303;28;20051;-81
2022/06/23 08:35:00;;;;;;;10.32;3.63;;;;;;;;;;10482920;28;20043;-81
2022/06/23 08:40:08;;;;;;;9.95;3.33;;;;;;;;;;10481959;28;20032;-81
2022/06/23 08:45:15;;;;;;;8.20;3.08;;;;;;;;;;10488564;28;20040;-81
2022/06/23 08:50:22;;;;;;;10.15;3.22;;;;;;;;;;10464885;28;20826;-82
2022/06/23 08:55:29;;;;;;;9.30;3.40;;;;;;;;;;10459965;28;20047;-83
2022/06/23 09:00:56;;;;;;;5.78;3.00;;;;;;;;;;10463799;28;20032;-82
2022/06/23 09:06:02;;;;;;;8.10;2.92;;;;;;;;;;10467808;28;20029;-80
2022/06/23 09:11:09;;;;;;;12.35;3.60;;;;;;;;;;10463089;28;20041;-82
2022/06/23 09:16:29;;;;;;;7.47;3.80;;;;;;;;;;10461031;28;20036;-82
2022/06/23 09:21:58;;;;;;;8.32;3.10;;;;;;;;;;10480602;28;20040;-82
2022/06/23 09:27:05;;;;;;;7.60;3.85;;;;;;;;;;10462097;28;20095;-82
2022/06/23 09:32:15;;;;;;;9.50;3.60;;;;;;;;;;10457935;28;20067;-82
2022/06/23 09:37:36;;;;;;;9.60;3.75;;;;;;;;;;10463181;28;20041;-82
2022/06/23 09:42:59;;;;;;;8.75;3.50;;;;;;;;;;10456863;28;20610;-83
2022/06/23 09:48:10;;;;;;;9.48;3.75;;;;;;;;;;10466357;28;20035;-81
2022/06/23 09:53:38;;;;;;;11.93;3.65;;;;;;;;;;10490482;28;20043;-82
2022/06/23 09:58:50;;;;;;;23.08;3.70;;;;;;;;;;10476849;28;20036;-80
2022/06/23 10:04:11;;;;;;;8.23;3.40;;;;;;;;;;10484621;28;20047;-81
2022/06/23 10:09:21;;;;;;;7.97;2.70;;;;;;;;;;10461730;28;20037;-83
2022/06/23 10:14:28;;;;;;;10.80;4.38;;;;;;;;;;10460038;28;20044;-82
2022/06/23 10:19:47;;;;;;;6.45;2.45;;;;;;;;;;10457708;28;20044;-82
2022/06/23 10:24:58;;;;;;;10.20;3.38;;;;;;;;;;10473992;28;20124;-80
2022/06/23 10:30:05;;;;;;;21.05;4.70;;;;;;;;;;10462059;28;20036;-82
2022/06/23 10:35:47;;;;;;;18.33;3.08;;;;;;;;;;10478978;28;20116;-82
2022/06/23 10:41:07;;;;;;;13.73;3.58;;;;;;;;;;10481874;28;20060;-82
2022/06/23 10:46:13;;;;;;;12.00;3.13;;;;;;;;;;10461758;28;20429;-80
2022/06/23 10:51:25;;;;;;;8.55;3.08;;;;;;;;;;10456114;28;20112;-83
2022/06/23 10:56:50;;;;;;;12.85;3.13;;;;;;;;;;10458316;28;20043;-81
2022/06/23 11:02:05;;;;;;;10.93;3.20;;;;;;;;;;10472367;28;20112;-82
2022/06/23 11:07:21;;;;;;;18.40;4.03;;;;;;;;;;10475795;28;20128;-81
2022/06/23 11:12:33;;;;;;;9.13;3.72;;;;;;;;;;10477594;28;20045;-84
2022/06/23 11:17:42;;;;;;;12.93;3.30;;;;;;;;;;10461807;28;20123;-81
2022/06/23 11:22:48;;;;;;;10.32;2.90;;;;;;;;;;10481242;28;20083;-81
2022/06/23 11:27:54;;;;;;;7.00;2.40;;;;;;;;;;10461062;28;20044;-80
2022/06/23 11:33:08;;;;;;;13.00;2.58;;;;;;;;;;10479656;28;20094;-79
2022/06/23 11:38:23;;;;;;;8.40;3.05;;;;;;;;;;10484728;28;20040;-80
2022/06/23 11:43:27;;;;;;;9.80;3.38;;;;;;;;;;10464478;28;20090;-82
2022/06/23 11:48:49;;;;;;;12.95;3.28;;;;;;;;;;10488209;28;20087;-81
2022/06/23 11:54:13;;;;;;;13.25;3.35;;;;;;;;;;10484932;28;20036;-81
2022/06/23 11:59:23;;;;;;;6.78;3.08;;;;;;;;;;10465740;28;20150;-80
2022/06/23 12:04:55;;;;;;;12.05;2.83;;;;;;;;;;10467250;28;20127;-79
2022/06/23 12:10:02;;;;;;;14.70;4.07;;;;;;;;;;10482941;28;20079;-81
2022/06/23 12:15:06;;;;;;;6.57;3.10;;;;;;;;;;10465413;28;20044;-81
2022/06/23 12:20:13;;;;;;;12.70;2.80;;;;;;;;;;10465512;28;20111;-82
2022/06/23 12:25:20;;;;;;;8.88;2.80;;;;;;;;;;10462459;28;20037;-80
2022/06/23 12:30:23;;;;;;;14.38;3.70;;;;;;;;;;10477641;28;20457;-82
2022/06/23 12:35:32;;;;;;;11.52;2.70;;;;;;;;;;10479316;28;20385;-79
2022/06/23 12:40:41;;;;;;;12.10;3.05;;;;;;;;;;10478797;28;20044;-79
2022/06/23 12:45:57;;;;;;;7.10;3.00;;;;;;;;;;10462046;28;20040;-81
2022/06/23 12:51:06;;;;;;;11.75;2.72;;;;;;;;;;10464000;28;20059;-82
2022/06/23 12:56:20;;;;;;;14.18;3.30;;;;;;;;;;10460589;28;20135;-80
2022/06/23 13:01:37;;;;;;;12.90;3.22;;;;;;;;;;10478444;28;20265;-82
2022/06/23 13:06:43;;;;;;;11.93;2.88;;;;;;;;;;10464488;28;20043;-81
2022/06/23 13:11:54;;;;;;;10.80;3.15;;;;;;;;;;10456341;28;20069;-82
2022/06/23 13:16:59;;;;;;;8.98;3.33;;;;;;;;;;10456678;28;20114;-81
2022/06/23 13:22:03;;;;;;;17.48;3.63;;;;;;;;;;10476780;28;20043;-82
2022/06/23 13:27:14;;;;;;;10.50;2.90;;;;;;;;;;10476158;28;20041;-81
2022/06/23 13:32:22;;;;;;;10.73;3.08;;;;;;;;;;10474592;28;20108;-80
2022/06/23 13:37:29;;;;;;;10.90;3.28;;;;;;;;;;10459523;28;20149;-79
2022/06/23 13:42:35;;;;;;;11.32;3.17;;;;;;;;;;10462067;28;20048;-80
2022/06/23 13:47:42;;;;;;;8.55;3.22;;;;;;;;;;10460199;28;20041;-82
2022/06/23 13:52:48;;;;;;;12.15;2.65;;;;;;;;;;10485349;28;20416;-81
2022/06/23 13:57:53;;;;;;;7.75;2.47;;;;;;;;;;10457420;28;20032;-80
2022/06/23 14:03:00;;;;;;;10.70;2.80;;;;;;;;;;10480085;28;20708;-80
2022/06/23 14:08:09;;;;;;;8.75;3.05;;;;;;;;;;10482882;28;20040;-81
2022/06/23 14:13:22;;;;;;;10.88;3.00;;;;;;;;;;10453509;28;20037;-81
2022/06/23 14:18:32;;;;;;;9.45;3.28;;;;;;;;;;10455259;28;20041;-80
2022/06/23 14:23:42;;;;;;;12.07;3.13;;;;;;;;;;10453654;28;20152;-80
2022/06/23 14:28:51;;;;;;;7.43;3.38;;;;;;;;;;10488627;28;20044;-79
2022/06/23 14:33:57;;;;;;;10.75;2.85;;;;;;;;;;10512862;28;20041;-80
2022/06/23 14:39:01;;;;;;;11.70;2.97;;;;;;;;;;10472892;28;20067;-80
2022/06/23 14:44:11;;;;;;;11.70;3.00;;;;;;;;;;10453163;28;20127;-77
2022/06/23 14:49:36;;;;;;;10.30;3.00;;;;;;;;;;10476549;28;20745;-80
2022/06/23 14:54:42;;;;;;;10.60;2.60;;;;;;;;;;10478680;28;20040;-80
2022/06/23 14:59:50;;;;;;;18.00;3.00;;;;;;;;;;10484545;28;20060;-79
2022/06/23 15:04:55;;;;;;;9.35;2.63;;;;;;;;;;10478011;28;20037;-80
2022/06/23 15:10:00;;;;;;;12.82;2.97;;;;;;;;;;10463412;28;20465;-81
2022/06/23 15:15:10;;;;;;;10.77;3.45;;;;;;;;;;10488482;28;20415;-78
2022/06/23 15:20:19;;;;;;;8.90;2.72;;;;;;;;;;10487709;28;20465;-80
2022/06/23 15:25:24;;;;;;;13.73;2.78;;;;;;;;;;10466870;28;20036;-80
2022/06/23 15:30:32;;;;;;;11.90;2.50;;;;;;;;;;10488868;28;20082;-81
2022/06/23 15:35:39;;;;;;;10.50;3.08;;;;;;;;;;10481500;28;20048;-80
2022/06/23 15:40:45;;;;;;;11.75;2.75;;;;;;;;;;10457225;28;20036;-79
2022/06/23 15:45:55;;;;;;;14.27;4.18;;;;;;;;;;10466015;28;20041;-80
2022/06/23 15:51:01;;;;;;;14.55;3.15;;;;;;;;;;10463427;28;20098;-79
2022/06/23 15:56:08;;;;;;;12.48;3.08;;;;;;;;;;10477485;28;20040;-80
2022/06/23 16:01:17;;;;;;;8.75;3.60;;;;;;;;;;10482704;28;20036;-79
2022/06/23 16:06:26;;;;;;;8.70;2.40;;;;;;;;;;10472401;28;20772;-80
2022/06/23 16:11:32;;;;;;;9.48;2.60;;;;;;;;;;10461683;28;20052;-80
2022/06/23 16:16:38;;;;;;;7.13;2.40;;;;;;;;;;10493824;28;20041;-80
2022/06/23 16:21:43;;;;;;;12.15;3.35;;;;;;;;;;10466018;28;20032;-81
2022/06/23 16:26:49;;;;;;;6.82;2.08;;;;;;;;;;10479408;28;20114;-81
2022/06/23 16:32:03;;;;;;;5.80;2.00;;;;;;;;;;10477788;28;20035;-80
2022/06/23 16:37:11;;;;;;;8.55;2.28;;;;;;;;;;10474366;28;20040;-80
2022/06/23 16:42:22;;;;;;;11.77;2.28;;;;;;;;;;10479182;28;20033;-79
2022/06/23 16:47:29;;;;;;;10.75;2.50;;;;;;;;;;10465945;28;20045;-81
2022/06/23 16:52:40;;;;;;;6.45;2.75;;;;;;;;;;10470844;28;20033;-82
2022/06/23 16:57:46;;;;;;;8.27;2.42;;;;;;;;;;10478995;28;20102;-81
2022/06/23 17:03:09;;;;;;;6.60;2.30;;;;;;;;;;10478974;28;20105;-81
2022/06/23 17:08:17;;;;;;;11.13;2.60;;;;;;;;;;10473116;28;20055;-82
2022/06/23 17:13:22;;;;;;;8.07;2.72;;;;;;;;;;10459134;28;20098;-81
2022/06/23 17:18:26;;;;;;;14.13;3.00;;;;;;;;;;10463160;28;20072;-80
2022/06/23 17:23:31;;;;;;;8.02;2.80;;;;;;;;;;10456060;28;20051;-78
2022/06/23 17:28:38;;;;;;;7.57;2.45;;;;;;;;;;10471458;28;20071;-80
2022/06/23 17:33:43;;;;;;;11.05;3.08;;;;;;;;;;10477555;28;20099;-84
2022/06/23 17:44:14;;;;;;;9.15;2.53;;;;;;;;;;10475074;28;20142;-80
2022/06/23 17:49:20;;;;;;;9.50;2.90;;;;;;;;;;10465174;28;20037;-80
2022/06/23 17:54:29;;;;;;;6.90;2.47;;;;;;;;;;10473376;28;20032;-82
2022/06/23 17:59:34;;;;;;;9.38;2.33;;;;;;;;;;10477129;28;20024;-81
2022/06/23 18:04:38;;;;;;;10.10;2.92;;;;;;;;;;10464715;28;20085;-81
2022/06/23 18:09:44;;;;;;;9.57;2.78;;;;;;;;;;10467722;28;20060;-80
2022/06/23 18:14:56;;;;;;;8.15;3.05;;;;;;;;;;10482644;28;20033;-79
2022/06/23 18:20:00;;;;;;;7.68;2.80;;;;;;;;;;10465076;28;20312;-81
2022/06/23 18:25:07;;;;;;;6.70;2.47;;;;;;;;;;10485204;28;20072;-81
2022/06/23 18:30:13;;;;;;;8.43;3.00;;;;;;;;;;10475953;28;20086;-80
2022/06/23 18:35:21;;;;;;;9.85;2.72;;;;;;;;;;10477496;28;20029;-81
2022/06/23 18:40:31;;;;;;;7.00;2.35;;;;;;;;;;10499972;28;20033;-79
2022/06/23 18:45:36;;;;;;;9.18;2.53;;;;;;;;;;10498180;28;20025;-79
2022/06/23 18:50:42;;;;;;;8.32;2.63;;;;;;;;;;10488345;28;20112;-81
2022/06/23 18:55:53;;;;;;;7.15;2.83;;;;;;;;;;10491324;28;20044;-81
2022/06/23 19:01:00;;;;;;;6.65;2.40;;;;;;;;;;10489706;28;20033;-79
2022/06/23 19:06:11;;;;;;;8.43;2.85;;;;;;;;;;10506336;28;20037;-81
2022/06/23 19:11:21;;;;;;;7.87;2.70;;;;;;;;;;10505599;28;20033;-80
2022/06/23 19:16:29;;;;;;;9.85;2.55;;;;;;;;;;10479182;28;20100;-81
2022/06/23 19:21:35;;;;;;;6.30;2.90;;;;;;;;;;10489529;28;20788;-80
2022/06/23 19:26:43;;;;;;;9.25;3.15;;;;;;;;;;10473685;28;20041;-81
2022/06/23 19:31:48;;;;;;;7.78;3.13;;;;;;;;;;10488899;28;20067;-80
2022/06/23 19:36:55;;;;;;;7.95;2.88;;;;;;;;;;10487820;28;20042;-78
2022/06/23 19:42:03;;;;;;;8.48;2.53;;;;;;;;;;10464300;28;20040;-77
2022/06/23 19:47:09;;;;;;;8.45;2.60;;;;;;;;;;10467604;28;20033;-79
2022/06/23 19:52:18;;;;;;;10.32;3.45;;;;;;;;;;10477095;28;20048;-76
2022/06/23 19:57:26;;;;;;;4.40;2.90;;;;;;;;;;10456213;28;20121;-76
2022/06/23 20:02:37;;;;;;;9.15;3.35;;;;;;;;;;10451717;28;20146;-77
2022/06/23 20:07:43;;;;;;;6.80;2.83;;;;;;;;;;10453849;28;20140;-76
2022/06/23 20:12:49;;;;;;;7.55;3.42;;;;;;;;;;10448989;28;20024;-77
2022/06/23 20:17:54;;;;;;;7.85;3.10;;;;;;;;;;10467294;28;20040;-77
2022/06/23 20:23:07;;;;;;;8.82;3.10;;;;;;;;;;10451298;28;20047;-76
2022/06/23 20:28:15;;;;;;;6.55;3.38;;;;;;;;;;10452831;28;20223;-78
2022/06/23 20:33:26;;;;;;;9.05;3.72;;;;;;;;;;10477029;28;20128;-79
2022/06/23 20:38:55;;;;;;;7.35;3.20;;;;;;;;;;10451482;28;20039;-78
2022/06/23 20:44:22;;;;;;;8.93;3.25;;;;;;;;;;10454384;28;20119;-77
2022/06/23 20:49:39;;;;;;;7.68;3.30;;;;;;;;;;10471640;28;20045;-77
2022/06/23 20:54:45;;;;;;;5.55;2.90;;;;;;;;;;10460160;28;20099;-78
2022/06/23 20:59:53;;;;;;;7.35;2.97;;;;;;;;;;10455818;28;20029;-77
2022/06/23 21:05:00;;;;;;;13.43;4.30;;;;;;;;;;10454074;28;20415;-77
2022/06/23 21:10:06;;;;;;;7.28;3.42;;;;;;;;;;10470214;28;20025;-77
2022/06/23 21:15:14;;;;;;;11.40;7.00;;;;;;;;;;10454623;28;20056;-76
2022/06/23 21:20:21;;;;;;;4.63;3.10;;;;;;;;;;10449830;28;20056;-79
2022/06/23 21:25:30;;;;;;;13.00;3.50;;;;;;;;;;10465121;28;20028;-78
2022/06/23 21:30:38;;;;;;;6.72;3.80;;;;;;;;;;10472154;28;20131;-78
2022/06/23 21:35:42;;;;;;;5.22;3.53;;;;;;;;;;10459712;28;20055;-77
2022/06/23 21:40:49;;;;;;;7.88;3.17;;;;;;;;;;10471689;28;20032;-77
2022/06/23 21:45:56;;;;;;;6.18;2.55;;;;;;;;;;10463948;28;20057;-76
2022/06/23 21:51:05;;;;;;;2.83;1.50;;;;;;;;;;10463600;28;20470;-81
2022/06/23 21:56:15;;;;;;;2.10;1.15;;;;;;;;;;10462761;28;20040;-82
2022/06/23 22:01:22;;;;;;;2.17;0.80;;;;;;;;;;10481117;28;20055;-83
2022/06/23 22:06:28;;;;;;;2.50;1.08;;;;;;;;;;10474502;28;20499;-84
2022/06/23 22:11:35;;;;;;;3.25;0.77;;;;;;;;;;10455245;28;20028;-81
2022/06/23 22:16:40;;;;;;;1.80;0.90;;;;;;;;;;10457461;28;20071;-81
2022/06/23 22:21:44;;;;;;;0.77;0.50;;;;;;;;;;10477521;28;20071;-80
2022/06/23 22:26:48;;;;;;;2.63;0.90;;;;;;;;;;10472740;28;20385;-82
2022/06/23 22:31:57;;;;;;;4.40;0.80;;;;;;;;;;10456215;28;20040;-81
2022/06/23 22:37:15;;;;;;;4.55;1.58;;;;;;;;;;10479232;28;20136;-82
2022/06/23 22:42:28;;;;;;;2.83;1.10;;;;;;;;;;10454948;28;20044;-83
2022/06/23 22:47:36;;;;;;;2.95;1.55;;;;;;;;;;10458576;28;20111;-84
2022/06/23 22:52:39;;;;;;;9.13;2.00;;;;;;;;;;10462294;28;20121;-82
2022/06/23 22:57:54;;;;;;;5.47;1.70;;;;;;;;;;10458392;28;20045;-84
2022/06/23 23:03:01;;;;;;;4.65;2.05;;;;;;;;;;10457993;28;20045;-84
2022/06/23 23:08:14;;;;;;;3.10;1.50;;;;;;;;;;10475892;28;20531;-85
2022/06/23 23:13:20;;;;;;;7.70;1.48;;;;;;;;;;10458694;28;20060;-86
2022/06/23 23:18:26;;;;;;;5.15;1.25;;;;;;;;;;10474063;28;20044;-85
2022/06/23 23:23:30;;;;;;;5.43;2.10;;;;;;;;;;10460243;28;20041;-84
2022/06/23 23:28:33;;;;;;;7.03;2.50;;;;;;;;;;10455975;28;20063;-84
2022/06/23 23:33:38;;;;;;;8.60;2.22;;;;;;;;;;10476482;28;20083;-84
2022/06/23 23:39:08;;;;;;;10.25;2.70;;;;;;;;;;10483892;28;20032;-82
2022/06/23 23:44:12;;;;;;;7.88;1.83;;;;;;;;;;10463173;28;20471;-83
2022/06/23 23:49:18;;;;;;;4.65;1.75;;;;;;;;;;10480563;28;20067;-83
2022/06/23 23:54:21;;;;;;;2.17;1.00;;;;;;;;;;10481255;28;20028;-84
2022/06/23 23:59:25;;;;;;;1.93;0.83;;;;;;;;;;10478678;28;20048;-83
